DKH1779 ZJHK-VHHH
Flight info
| Callsign | DKH1779 |
|---|---|
| Flight time | 0h 44m |
| Altitude | 26600 |
| Route | SAMAS9XD SAMAS A202 SIKOU/N0423F266 V571 CANTO |
| Aircraft | A320/M-SDE3FGHIRWY/LB1 |
Departure
| Time | 2026-04-21 12:44 |
|---|---|
| Airport | Haikou Meilan International Airport (ZJHK) |
Arrival
| Time | 2026-04-21 13:28 |
|---|---|
| Airport | Hong Kong International Airport (VHHH) |
| Time | Latitude | Longitude | Altitude | Speed | Heading |
|---|---|---|---|---|---|
| 2026-04-21 12:14 | 19.93995 | 110.45803 | 67 ft | 0 kts | 0° |
| 2026-04-21 12:30 | 19.93988 | 110.45803 | 69 ft | 4 kts | 1° |
| 2026-04-21 12:31 | 19.93961 | 110.45802 | 68 ft | 4 kts | 3° |
| 2026-04-21 12:31 | 19.93934 | 110.45802 | 69 ft | 4 kts | 354° |
| 2026-04-21 12:31 | 19.93907 | 110.45805 | 72 ft | 4 kts | 354° |
| 2026-04-21 12:31 | 19.93888 | 110.45807 | 72 ft | 1 kts | 350° |
| 2026-04-21 12:32 | 19.93885 | 110.45808 | 73 ft | 0 kts | 350° |
| 2026-04-21 12:33 | 19.93888 | 110.45804 | 71 ft | 2 kts | 321° |
| 2026-04-21 12:33 | 19.93874 | 110.45785 | 73 ft | 6 kts | 198° |
| 2026-04-21 12:33 | 19.93812 | 110.45779 | 71 ft | 9 kts | 180° |
| 2026-04-21 12:33 | 19.93751 | 110.45776 | 80 ft | 8 kts | 199° |
| 2026-04-21 12:34 | 19.93735 | 110.45731 | 82 ft | 6 kts | 262° |
| 2026-04-21 12:34 | 19.93731 | 110.45691 | 80 ft | 5 kts | 270° |
| 2026-04-21 12:34 | 19.93731 | 110.45634 | 80 ft | 11 kts | 269° |
| 2026-04-21 12:34 | 19.93730 | 110.45548 | 80 ft | 11 kts | 270° |
| 2026-04-21 12:35 | 19.93730 | 110.45471 | 80 ft | 10 kts | 269° |
| 2026-04-21 12:35 | 19.93729 | 110.45403 | 80 ft | 9 kts | 269° |
| 2026-04-21 12:35 | 19.93729 | 110.45344 | 81 ft | 8 kts | 270° |
| 2026-04-21 12:35 | 19.93729 | 110.45265 | 81 ft | 14 kts | 270° |
| 2026-04-21 12:36 | 19.93729 | 110.45175 | 81 ft | 7 kts | 270° |
| 2026-04-21 12:36 | 19.93734 | 110.45102 | 81 ft | 13 kts | 293° |
| 2026-04-21 12:36 | 19.93830 | 110.45083 | 84 ft | 18 kts | 359° |
| 2026-04-21 12:36 | 19.93960 | 110.45083 | 71 ft | 18 kts | 359° |
| 2026-04-21 12:37 | 19.94093 | 110.45082 | 70 ft | 21 kts | 360° |
| 2026-04-21 12:37 | 19.94233 | 110.45081 | 72 ft | 19 kts | 359° |
| 2026-04-21 12:37 | 19.94371 | 110.45081 | 66 ft | 21 kts | 359° |
| 2026-04-21 12:37 | 19.94528 | 110.45080 | 60 ft | 25 kts | 360° |
| 2026-04-21 12:38 | 19.94670 | 110.45080 | 56 ft | 18 kts | 360° |
| 2026-04-21 12:38 | 19.94793 | 110.45079 | 51 ft | 18 kts | 360° |
| 2026-04-21 12:38 | 19.94910 | 110.45078 | 50 ft | 16 kts | 360° |
| 2026-04-21 12:38 | 19.95021 | 110.45078 | 54 ft | 15 kts | 360° |
| 2026-04-21 12:39 | 19.95108 | 110.45077 | 53 ft | 11 kts | 360° |
| 2026-04-21 12:39 | 19.95184 | 110.45074 | 53 ft | 10 kts | 346° |
| 2026-04-21 12:39 | 19.95202 | 110.45019 | 52 ft | 8 kts | 270° |
| 2026-04-21 12:39 | 19.95202 | 110.44936 | 52 ft | 13 kts | 269° |
| 2026-04-21 12:40 | 19.95202 | 110.44848 | 52 ft | 11 kts | 270° |
| 2026-04-21 12:40 | 19.95252 | 110.44820 | 51 ft | 7 kts | 360° |
| 2026-04-21 12:40 | 19.95257 | 110.44820 | 51 ft | 0 kts | 360° |
| 2026-04-21 12:42 | 19.95261 | 110.44820 | 51 ft | 3 kts | 360° |
| 2026-04-21 12:42 | 19.95309 | 110.44823 | 50 ft | 11 kts | 8° |
| 2026-04-21 12:42 | 19.95372 | 110.44862 | 47 ft | 9 kts | 58° |
| 2026-04-21 12:42 | 19.95373 | 110.44880 | 50 ft | 0 kts | 91° |
| 2026-04-21 12:43 | 19.95372 | 110.45009 | 52 ft | 53 kts | 90° |
| 2026-04-21 12:43 | 19.95374 | 110.45671 | 57 ft | 123 kts | 90° |
| 2026-04-21 12:43 | 19.95377 | 110.46783 | 90 ft | 173 kts | 92° |
| 2026-04-21 12:44 | 19.95370 | 110.48059 | 718 ft | 176 kts | 96° |
| 2026-04-21 12:44 | 19.95593 | 110.49368 | 1505 ft | 187 kts | 67° |
| 2026-04-21 12:44 | 19.96567 | 110.50362 | 2118 ft | 210 kts | 39° |
| 2026-04-21 12:44 | 19.97852 | 110.51268 | 2498 ft | 234 kts | 35° |
| 2026-04-21 12:45 | 19.99311 | 110.52240 | 2908 ft | 258 kts | 33° |
| 2026-04-21 12:45 | 20.00852 | 110.53257 | 3718 ft | 264 kts | 32° |
| 2026-04-21 12:45 | 20.02412 | 110.54299 | 4671 ft | 265 kts | 32° |
| 2026-04-21 12:45 | 20.03984 | 110.55365 | 5510 ft | 270 kts | 33° |
| 2026-04-21 12:46 | 20.05576 | 110.56458 | 6346 ft | 276 kts | 33° |
| 2026-04-21 12:46 | 20.07187 | 110.57571 | 7211 ft | 277 kts | 33° |
| 2026-04-21 12:46 | 20.08858 | 110.58596 | 8079 ft | 279 kts | 21° |
| 2026-04-21 12:46 | 20.10733 | 110.59140 | 8882 ft | 282 kts | 5° |
| 2026-04-21 12:47 | 20.12748 | 110.59092 | 9369 ft | 297 kts | 346° |
| 2026-04-21 12:47 | 20.14772 | 110.58570 | 10086 ft | 302 kts | 343° |
| 2026-04-21 12:47 | 20.16872 | 110.58019 | 10457 ft | 323 kts | 343° |
| 2026-04-21 12:47 | 20.19131 | 110.57436 | 10821 ft | 341 kts | 344° |
| 2026-04-21 12:48 | 20.21467 | 110.56847 | 11487 ft | 347 kts | 343° |
| 2026-04-21 12:48 | 20.23829 | 110.56255 | 12248 ft | 351 kts | 344° |
| 2026-04-21 12:48 | 20.26194 | 110.55663 | 13010 ft | 353 kts | 344° |
| 2026-04-21 12:48 | 20.28596 | 110.55061 | 13772 ft | 356 kts | 343° |
| 2026-04-21 12:49 | 20.31010 | 110.54450 | 14432 ft | 358 kts | 343° |
| 2026-04-21 12:49 | 20.33442 | 110.53832 | 15093 ft | 361 kts | 343° |
| 2026-04-21 12:49 | 20.35891 | 110.53209 | 15755 ft | 363 kts | 343° |
| 2026-04-21 12:49 | 20.38353 | 110.52583 | 16394 ft | 365 kts | 343° |
| 2026-04-21 12:50 | 20.40838 | 110.51950 | 17031 ft | 368 kts | 344° |
| 2026-04-21 12:50 | 20.43346 | 110.51312 | 17651 ft | 371 kts | 344° |
| 2026-04-21 12:50 | 20.45926 | 110.50987 | 18224 ft | 379 kts | 0° |
| 2026-04-21 12:50 | 20.48522 | 110.51592 | 18727 ft | 389 kts | 20° |
| 2026-04-21 12:51 | 20.50821 | 110.53155 | 19211 ft | 399 kts | 41° |
| 2026-04-21 12:51 | 20.52502 | 110.55548 | 19710 ft | 408 kts | 62° |
| 2026-04-21 12:51 | 20.53540 | 110.58372 | 20213 ft | 412 kts | 68° |
| 2026-04-21 12:51 | 20.54515 | 110.61263 | 20467 ft | 415 kts | 69° |
| 2026-04-21 12:52 | 20.55482 | 110.64168 | 20540 ft | 415 kts | 69° |
| 2026-04-21 12:52 | 20.56443 | 110.67070 | 20549 ft | 415 kts | 69° |
| 2026-04-21 12:52 | 20.57408 | 110.69970 | 20549 ft | 415 kts | 69° |
| 2026-04-21 12:52 | 20.58377 | 110.72867 | 20549 ft | 414 kts | 69° |
| 2026-04-21 12:53 | 20.59351 | 110.75767 | 20548 ft | 415 kts | 69° |
| 2026-04-21 12:53 | 20.60315 | 110.78630 | 20549 ft | 415 kts | 69° |
| 2026-04-21 12:53 | 20.61289 | 110.81521 | 20550 ft | 415 kts | 68° |
| 2026-04-21 12:53 | 20.62268 | 110.84424 | 20549 ft | 415 kts | 68° |
| 2026-04-21 12:54 | 20.63242 | 110.87320 | 20548 ft | 414 kts | 69° |
| 2026-04-21 12:54 | 20.64214 | 110.90216 | 20562 ft | 415 kts | 68° |
| 2026-04-21 12:54 | 20.65189 | 110.93120 | 20562 ft | 415 kts | 69° |
| 2026-04-21 12:54 | 20.66164 | 110.96012 | 20562 ft | 414 kts | 69° |
| 2026-04-21 12:55 | 20.67144 | 110.98908 | 20563 ft | 415 kts | 68° |
| 2026-04-21 12:55 | 20.68129 | 111.01807 | 20565 ft | 415 kts | 68° |
| 2026-04-21 12:55 | 20.69111 | 111.04704 | 20565 ft | 415 kts | 68° |
| 2026-04-21 12:55 | 20.70095 | 111.07606 | 20565 ft | 415 kts | 68° |
| 2026-04-21 12:56 | 20.71077 | 111.10501 | 20566 ft | 414 kts | 68° |
| 2026-04-21 12:56 | 20.72054 | 111.13394 | 20565 ft | 415 kts | 69° |
| 2026-04-21 12:56 | 20.73027 | 111.16291 | 20571 ft | 414 kts | 69° |
| 2026-04-21 12:56 | 20.73996 | 111.19183 | 20571 ft | 413 kts | 69° |
| 2026-04-21 12:57 | 20.74967 | 111.22071 | 20570 ft | 413 kts | 69° |
| 2026-04-21 12:57 | 20.75940 | 111.24962 | 20571 ft | 413 kts | 69° |
| 2026-04-21 12:57 | 20.76912 | 111.27852 | 20573 ft | 413 kts | 69° |
| 2026-04-21 12:57 | 20.77885 | 111.30746 | 20574 ft | 413 kts | 69° |
| 2026-04-21 12:58 | 20.78842 | 111.33591 | 20574 ft | 413 kts | 69° |
| 2026-04-21 12:58 | 20.79813 | 111.36478 | 20574 ft | 413 kts | 69° |
| 2026-04-21 12:58 | 20.80784 | 111.39372 | 20577 ft | 413 kts | 69° |
| 2026-04-21 12:58 | 20.81751 | 111.42261 | 20579 ft | 413 kts | 69° |
| 2026-04-21 12:59 | 20.82717 | 111.45158 | 20579 ft | 413 kts | 69° |
| 2026-04-21 12:59 | 20.83681 | 111.48048 | 20579 ft | 413 kts | 69° |
| 2026-04-21 12:59 | 20.84647 | 111.50939 | 20579 ft | 413 kts | 69° |
| 2026-04-21 12:59 | 20.85618 | 111.53832 | 20585 ft | 413 kts | 69° |
| 2026-04-21 13:00 | 20.86595 | 111.56722 | 20585 ft | 413 kts | 69° |
| 2026-04-21 13:00 | 20.87574 | 111.59615 | 20587 ft | 413 kts | 69° |
| 2026-04-21 13:00 | 20.88552 | 111.62496 | 20587 ft | 413 kts | 69° |
| 2026-04-21 13:00 | 20.89532 | 111.65380 | 20587 ft | 413 kts | 68° |
| 2026-04-21 13:01 | 20.90514 | 111.68271 | 20586 ft | 413 kts | 69° |
| 2026-04-21 13:01 | 20.91479 | 111.71121 | 20585 ft | 413 kts | 69° |
| 2026-04-21 13:01 | 20.92465 | 111.74043 | 20585 ft | 413 kts | 69° |
| 2026-04-21 13:01 | 20.93428 | 111.76901 | 20584 ft | 413 kts | 69° |
| 2026-04-21 13:02 | 20.94398 | 111.79792 | 20585 ft | 413 kts | 69° |
| 2026-04-21 13:02 | 20.95364 | 111.82677 | 20587 ft | 413 kts | 69° |
| 2026-04-21 13:02 | 20.97303 | 111.88447 | 20587 ft | 412 kts | 69° |
| 2026-04-21 13:03 | 20.98274 | 111.91341 | 20592 ft | 412 kts | 69° |
| 2026-04-21 13:03 | 20.99243 | 111.94227 | 20590 ft | 413 kts | 69° |
| 2026-04-21 13:03 | 21.00215 | 111.97118 | 20590 ft | 413 kts | 69° |
| 2026-04-21 13:03 | 21.01185 | 112.00013 | 20590 ft | 413 kts | 69° |
| 2026-04-21 13:04 | 21.02151 | 112.02902 | 20593 ft | 413 kts | 69° |
| 2026-04-21 13:04 | 21.03116 | 112.05796 | 20593 ft | 413 kts | 69° |
| 2026-04-21 13:04 | 21.04084 | 112.08695 | 20596 ft | 413 kts | 69° |
| 2026-04-21 13:04 | 21.05053 | 112.11587 | 20596 ft | 413 kts | 69° |
| 2026-04-21 13:05 | 21.06024 | 112.14489 | 20595 ft | 413 kts | 69° |
| 2026-04-21 13:05 | 21.06989 | 112.17379 | 20593 ft | 413 kts | 69° |
| 2026-04-21 13:05 | 21.07955 | 112.20277 | 20596 ft | 413 kts | 69° |
| 2026-04-21 13:05 | 21.08917 | 112.23164 | 20596 ft | 413 kts | 69° |
| 2026-04-21 13:06 | 21.09882 | 112.26064 | 20593 ft | 412 kts | 69° |
| 2026-04-21 13:06 | 21.10842 | 112.28953 | 20593 ft | 412 kts | 69° |
| 2026-04-21 13:06 | 21.11803 | 112.31850 | 20593 ft | 412 kts | 69° |
| 2026-04-21 13:06 | 21.12438 | 112.33763 | 20598 ft | 412 kts | 69° |
| 2026-04-21 13:07 | 21.13720 | 112.37633 | 20601 ft | 412 kts | 69° |
| 2026-04-21 13:07 | 21.14676 | 112.40518 | 20261 ft | 408 kts | 69° |
| 2026-04-21 13:07 | 21.15614 | 112.43338 | 19963 ft | 407 kts | 69° |
| 2026-04-21 13:07 | 21.16561 | 112.46185 | 19882 ft | 403 kts | 69° |
| 2026-04-21 13:08 | 21.17198 | 112.48102 | 19902 ft | 403 kts | 69° |
| 2026-04-21 13:08 | 21.18436 | 112.51841 | 19901 ft | 402 kts | 69° |
| 2026-04-21 13:08 | 21.19067 | 112.53751 | 19902 ft | 402 kts | 69° |
| 2026-04-21 13:08 | 21.20303 | 112.57495 | 19901 ft | 403 kts | 69° |
| 2026-04-21 13:09 | 21.20934 | 112.59404 | 19904 ft | 403 kts | 69° |
| 2026-04-21 13:09 | 21.21875 | 112.62243 | 19905 ft | 404 kts | 69° |
| 2026-04-21 13:09 | 21.23119 | 112.65997 | 19906 ft | 404 kts | 69° |
| 2026-04-21 13:09 | 21.23752 | 112.67912 | 19904 ft | 404 kts | 69° |
| 2026-04-21 13:10 | 21.24690 | 112.70758 | 19902 ft | 404 kts | 69° |
| 2026-04-21 13:10 | 21.25612 | 112.73556 | 19903 ft | 404 kts | 69° |
| 2026-04-21 13:10 | 21.26549 | 112.76398 | 19902 ft | 404 kts | 69° |
| 2026-04-21 13:10 | 21.27483 | 112.79238 | 19903 ft | 404 kts | 69° |
| 2026-04-21 13:11 | 21.28417 | 112.82077 | 19911 ft | 404 kts | 69° |
| 2026-04-21 13:11 | 21.29349 | 112.84915 | 19914 ft | 404 kts | 69° |
| 2026-04-21 13:11 | 21.30284 | 112.87756 | 19916 ft | 404 kts | 69° |
| 2026-04-21 13:11 | 21.31219 | 112.90596 | 19916 ft | 404 kts | 69° |
| 2026-04-21 13:12 | 21.32157 | 112.93443 | 19916 ft | 404 kts | 69° |
| 2026-04-21 13:12 | 21.33088 | 112.96285 | 19913 ft | 403 kts | 69° |
| 2026-04-21 13:12 | 21.34015 | 112.99124 | 19915 ft | 403 kts | 69° |
| 2026-04-21 13:12 | 21.34943 | 113.01969 | 19912 ft | 403 kts | 69° |
| 2026-04-21 13:13 | 21.35868 | 113.04802 | 19915 ft | 403 kts | 69° |
| 2026-04-21 13:13 | 21.36795 | 113.07644 | 19914 ft | 403 kts | 69° |
| 2026-04-21 13:13 | 21.37731 | 113.10511 | 19908 ft | 412 kts | 69° |
| 2026-04-21 13:13 | 21.38686 | 113.13425 | 19911 ft | 414 kts | 69° |
| 2026-04-21 13:14 | 21.39644 | 113.16342 | 19912 ft | 415 kts | 69° |
| 2026-04-21 13:14 | 21.40599 | 113.19258 | 19911 ft | 415 kts | 69° |
| 2026-04-21 13:14 | 21.41555 | 113.22182 | 19915 ft | 415 kts | 69° |
| 2026-04-21 13:14 | 21.42840 | 113.24943 | 19909 ft | 412 kts | 52° |
| 2026-04-21 13:15 | 21.44807 | 113.27137 | 19909 ft | 408 kts | 38° |
| 2026-04-21 13:15 | 21.46997 | 113.29090 | 19913 ft | 408 kts | 37° |
| 2026-04-21 13:15 | 21.49193 | 113.31024 | 19912 ft | 408 kts | 37° |
| 2026-04-21 13:15 | 21.51388 | 113.32953 | 19910 ft | 408 kts | 37° |
| 2026-04-21 13:16 | 21.53585 | 113.34883 | 19910 ft | 409 kts | 37° |
| 2026-04-21 13:16 | 21.55784 | 113.36814 | 19912 ft | 409 kts | 37° |
| 2026-04-21 13:16 | 21.57983 | 113.38745 | 19747 ft | 405 kts | 37° |
| 2026-04-21 13:16 | 21.60161 | 113.40659 | 19239 ft | 403 kts | 37° |
| 2026-04-21 13:17 | 21.62321 | 113.42565 | 18743 ft | 401 kts | 37° |
| 2026-04-21 13:17 | 21.64440 | 113.44440 | 18245 ft | 399 kts | 37° |
| 2026-04-21 13:17 | 21.66577 | 113.46336 | 17594 ft | 399 kts | 37° |
| 2026-04-21 13:17 | 21.68720 | 113.48229 | 16954 ft | 399 kts | 37° |
| 2026-04-21 13:18 | 21.70872 | 113.50119 | 16308 ft | 399 kts | 37° |
| 2026-04-21 13:18 | 21.73026 | 113.52001 | 15687 ft | 399 kts | 37° |
| 2026-04-21 13:18 | 21.75185 | 113.53879 | 15069 ft | 399 kts | 37° |
| 2026-04-21 13:18 | 21.77331 | 113.55737 | 14466 ft | 392 kts | 37° |
| 2026-04-21 13:19 | 21.79439 | 113.57557 | 13878 ft | 386 kts | 37° |
| 2026-04-21 13:19 | 21.81518 | 113.59345 | 13231 ft | 380 kts | 37° |
| 2026-04-21 13:19 | 21.83565 | 113.61097 | 12575 ft | 370 kts | 37° |
| 2026-04-21 13:19 | 21.85558 | 113.62795 | 11936 ft | 362 kts | 37° |
| 2026-04-21 13:20 | 21.87533 | 113.64466 | 11310 ft | 358 kts | 36° |
| 2026-04-21 13:20 | 21.89614 | 113.65878 | 10701 ft | 352 kts | 25° |
| 2026-04-21 13:20 | 21.91783 | 113.67074 | 10093 ft | 348 kts | 25° |
| 2026-04-21 13:20 | 21.93927 | 113.68260 | 9470 ft | 345 kts | 26° |
| 2026-04-21 13:21 | 21.96025 | 113.69424 | 8819 ft | 341 kts | 26° |
| 2026-04-21 13:21 | 21.98121 | 113.70589 | 8183 ft | 337 kts | 26° |
| 2026-04-21 13:21 | 22.00194 | 113.71740 | 7558 ft | 334 kts | 26° |
| 2026-04-21 13:21 | 22.02253 | 113.72882 | 6943 ft | 331 kts | 27° |
| 2026-04-21 13:22 | 22.04295 | 113.74013 | 6339 ft | 329 kts | 27° |
| 2026-04-21 13:22 | 22.06320 | 113.75134 | 5694 ft | 326 kts | 28° |
| 2026-04-21 13:22 | 22.08341 | 113.76212 | 5060 ft | 323 kts | 22° |
| 2026-04-21 13:22 | 22.10516 | 113.76740 | 4431 ft | 320 kts | 2° |
| 2026-04-21 13:23 | 22.12687 | 113.76470 | 4042 ft | 308 kts | 342° |
| 2026-04-21 13:23 | 22.14593 | 113.75617 | 3911 ft | 291 kts | 333° |
| 2026-04-21 13:23 | 22.16425 | 113.74706 | 3791 ft | 288 kts | 333° |
| 2026-04-21 13:23 | 22.18239 | 113.73808 | 3673 ft | 287 kts | 333° |
| 2026-04-21 13:24 | 22.20047 | 113.72914 | 3552 ft | 285 kts | 333° |
| 2026-04-21 13:24 | 22.21861 | 113.72060 | 3432 ft | 285 kts | 341° |
| 2026-04-21 13:24 | 22.23820 | 113.71976 | 3362 ft | 285 kts | 15° |
| 2026-04-21 13:24 | 22.25586 | 113.72916 | 3027 ft | 283 kts | 37° |
| 2026-04-21 13:25 | 22.27069 | 113.74256 | 2685 ft | 273 kts | 51° |
| 2026-04-21 13:25 | 22.28104 | 113.75865 | 2327 ft | 247 kts | 68° |
| 2026-04-21 13:25 | 22.28692 | 113.77490 | 2030 ft | 219 kts | 75° |
| 2026-04-21 13:25 | 22.29170 | 113.78964 | 1788 ft | 197 kts | 75° |
| 2026-04-21 13:26 | 22.29600 | 113.80295 | 1519 ft | 178 kts | 75° |
| 2026-04-21 13:26 | 22.29987 | 113.81491 | 1305 ft | 161 kts | 75° |
| 2026-04-21 13:26 | 22.30340 | 113.82584 | 1099 ft | 148 kts | 74° |
| 2026-04-21 13:26 | 22.30674 | 113.83622 | 927 ft | 145 kts | 76° |
| 2026-04-21 13:27 | 22.31002 | 113.84639 | 748 ft | 142 kts | 76° |
| 2026-04-21 13:27 | 22.31325 | 113.85641 | 577 ft | 141 kts | 74° |
| 2026-04-21 13:27 | 22.31647 | 113.86640 | 391 ft | 140 kts | 76° |
| 2026-04-21 13:27 | 22.31967 | 113.87631 | 219 ft | 140 kts | 76° |
| 2026-04-21 13:28 | 22.32279 | 113.88601 | 43 ft | 136 kts | 75° |
| 2026-04-21 13:28 | 22.32535 | 113.89405 | 36 ft | 73 kts | 70° |
| 2026-04-21 13:28 | 22.32658 | 113.89772 | 34 ft | 47 kts | 70° |
| 2026-04-21 13:28 | 22.32700 | 113.90027 | 36 ft | 21 kts | 94° |
| 2026-04-21 13:29 | 22.32677 | 113.90170 | 34 ft | 14 kts | 127° |
| 2026-04-21 13:29 | 22.32614 | 113.90241 | 36 ft | 14 kts | 124° |
| 2026-04-21 13:29 | 22.32536 | 113.90304 | 36 ft | 15 kts | 159° |
| 2026-04-21 13:29 | 22.32429 | 113.90345 | 36 ft | 18 kts | 160° |
| 2026-04-21 13:30 | 22.32306 | 113.90391 | 36 ft | 19 kts | 161° |
| 2026-04-21 13:30 | 22.32185 | 113.90437 | 36 ft | 20 kts | 161° |
| 2026-04-21 13:30 | 22.32054 | 113.90486 | 36 ft | 21 kts | 161° |
| 2026-04-21 13:30 | 22.31917 | 113.90538 | 36 ft | 22 kts | 161° |
| 2026-04-21 13:31 | 22.31772 | 113.90591 | 36 ft | 20 kts | 159° |
| 2026-04-21 13:31 | 22.31709 | 113.90617 | 36 ft | 0 kts | 160° |
| 2026-04-21 13:32 | 22.31671 | 113.90631 | 36 ft | 11 kts | 161° |
| 2026-04-21 13:33 | 22.31582 | 113.90668 | 36 ft | 12 kts | 144° |
| 2026-04-21 13:33 | 22.31595 | 113.90775 | 36 ft | 18 kts | 71° |
| 2026-04-21 13:33 | 22.31639 | 113.90915 | 35 ft | 21 kts | 70° |
| 2026-04-21 13:33 | 22.31689 | 113.91074 | 33 ft | 24 kts | 71° |
| 2026-04-21 13:34 | 22.31744 | 113.91242 | 36 ft | 23 kts | 70° |
| 2026-04-21 13:34 | 22.31795 | 113.91401 | 35 ft | 24 kts | 70° |
| 2026-04-21 13:34 | 22.31849 | 113.91569 | 36 ft | 23 kts | 71° |
| 2026-04-21 13:34 | 22.31906 | 113.91742 | 36 ft | 26 kts | 70° |
| 2026-04-21 13:35 | 22.31966 | 113.91932 | 36 ft | 28 kts | 71° |
| 2026-04-21 13:35 | 22.32019 | 113.92095 | 35 ft | 22 kts | 71° |
| 2026-04-21 13:35 | 22.32068 | 113.92247 | 35 ft | 23 kts | 70° |
| 2026-04-21 13:35 | 22.32123 | 113.92419 | 35 ft | 25 kts | 70° |